Time;durP1;ratioP1;P1;durP2;ratioP2;P2;SDS_P1;SDS_P2;PMS_P1;PMS_P2;Temp;Humidity;BMP_temperature;BMP_pressure;BME280_temperature;BME280_humidity;BME280_pressure;Samples;Min_cycle;Max_cycle;Signal;HPM_P1;HPM_P2
2023/05/08 00:00:31;;;;;;;;;;;;;;;18.31;55.13;101770.91;4996855;28;19968;-83
2023/05/08 00:02:56;;;;;;;;;;;;;;;18.35;55.21;101776.28;5014405;28;19922;-84
2023/05/08 00:05:22;;;;;;;;;;;;;;;18.34;55.20;101778.03;5014093;28;19918;-83
2023/05/08 00:07:49;;;;;;;;;;;;;;;18.31;55.15;101768.25;5014339;28;20405;-83
2023/05/08 00:10:15;;;;;;;;;;;;;;;18.31;55.17;101767.34;5026025;28;20353;-83
2023/05/08 00:12:40;;;;;;;;;;;;;;;18.29;55.12;101759.34;5021460;28;19921;-83
2023/05/08 00:15:06;;;;;;;;;;;;;;;18.29;55.23;101763.75;5001587;28;19917;-83
2023/05/08 00:17:32;;;;;;;;;;;;;;;18.27;55.32;101766.31;5012573;28;19975;-83
2023/05/08 00:19:57;;;;;;;;;;;;;;;18.29;55.28;101767.28;5012587;28;20429;-84
2023/05/08 00:22:22;;;;;;;;;;;;;;;18.27;55.24;101766.31;5016847;28;20401;-83
2023/05/08 00:24:48;;;;;;;;;;;;;;;18.28;55.12;101768.13;5013867;28;19921;-84
2023/05/08 00:27:13;;;;;;;;;;;;;;;18.29;55.30;101769.03;5015911;28;20536;-83
2023/05/08 00:29:42;;;;;;;;;;;;;;;18.26;55.19;101766.25;5024723;28;20714;-83
2023/05/08 00:32:07;;;;;;;;;;;;;;;18.23;55.44;101767.06;5012139;28;19953;-83
2023/05/08 00:34:33;;;;;;;;;;;;;;;18.23;55.33;101768.81;5012438;28;19991;-83
2023/05/08 00:36:58;;;;;;;;;;;;;;;18.23;55.15;101764.41;5013429;28;19914;-83
2023/05/08 00:39:23;;;;;;;;;;;;;;;18.23;55.29;101763.50;5018577;28;19917;-83
2023/05/08 00:41:49;;;;;;;;;;;;;;;18.24;55.17;101775.88;5025252;28;20409;-83
2023/05/08 00:44:14;;;;;;;;;;;;;;;18.22;55.29;101774.91;5013479;28;19925;-83
2023/05/08 00:46:40;;;;;;;;;;;;;;;18.24;55.30;101775.88;5013303;28;19992;-83
2023/05/08 00:49:06;;;;;;;;;;;;;;;18.23;55.33;101782.03;5012177;28;20012;-83
2023/05/08 00:51:31;;;;;;;;;;;;;;;18.21;55.24;101786.34;5028102;28;20004;-83
2023/05/08 00:53:57;;;;;;;;;;;;;;;18.20;55.17;101779.25;5021070;28;20374;-83
2023/05/08 00:56:22;;;;;;;;;;;;;;;18.17;55.24;101776.50;5013592;28;19960;-83
2023/05/08 00:58:47;;;;;;;;;;;;;;;18.16;55.22;101777.31;5011871;28;19922;-83
2023/05/08 01:01:13;;;;;;;;;;;;;;;18.17;55.21;101777.38;5012805;28;19961;-83
2023/05/08 01:03:38;;;;;;;;;;;;;;;18.17;55.08;101782.66;5017233;28;20446;-83
2023/05/08 01:06:05;;;;;;;;;;;;;;;18.17;55.16;101781.78;5012621;28;19921;-83
2023/05/08 01:08:31;;;;;;;;;;;;;;;18.16;55.18;101788.81;4995375;28;19917;-83
2023/05/08 01:10:56;;;;;;;;;;;;;;;18.16;55.06;101787.88;5010846;28;20020;-83
2023/05/08 01:13:40;;;;;;;;;;;;;;;18.13;55.22;101780.75;5013387;28;20398;-83
2023/05/08 01:16:16;;;;;;;;;;;;;;;18.16;54.87;101777.31;5012727;28;19917;-84
2023/05/08 01:18:43;;;;;;;;;;;;;;;18.13;55.00;101780.75;4997153;28;19918;-83
2023/05/08 01:21:17;;;;;;;;;;;;;;;18.13;55.14;101769.28;4996661;28;20052;-84
2023/05/08 01:23:56;;;;;;;;;;;;;;;18.10;54.97;101764.78;5023910;28;19917;-83
2023/05/08 01:26:58;;;;;;;;;;;;;;;18.09;55.08;101768.25;5011253;28;19926;-84
2023/05/08 01:29:32;;;;;;;;;;;;;;;18.09;55.03;101768.25;5006781;28;19925;-83
2023/05/08 01:32:11;;;;;;;;;;;;;;;18.08;54.98;101764.72;5012518;28;19922;-83
2023/05/08 01:34:45;;;;;;;;;;;;;;;18.08;54.97;101769.09;5021206;28;19949;-83
2023/05/08 01:37:21;;;;;;;;;;;;;;;18.06;55.02;101769.03;5028899;28;19917;-83
2023/05/08 01:39:56;;;;;;;;;;;;;;;18.07;54.99;101762.00;5005427;28;19926;-82
2023/05/08 01:42:22;;;;;;;;;;;;;;;18.05;54.95;101764.56;5011275;28;20004;-83
2023/05/08 01:44:56;;;;;;;;;;;;;;;18.04;54.83;101756.59;5010806;28;19913;-83
2023/05/08 01:47:23;;;;;;;;;;;;;;;18.03;55.04;101758.34;5011294;28;19917;-83
2023/05/08 01:49:49;;;;;;;;;;;;;;;18.03;55.13;101753.06;5013485;28;20031;-83
2023/05/08 01:52:20;;;;;;;;;;;;;;;18.04;55.11;101751.31;5011007;28;19928;-83
2023/05/08 01:54:55;;;;;;;;;;;;;;;18.02;55.24;101753.91;5010951;28;19988;-83
2023/05/08 01:57:21;;;;;;;;;;;;;;;18.02;55.16;101763.56;5011044;28;20056;-83
2023/05/08 01:59:46;;;;;;;;;;;;;;;18.02;55.26;101769.75;5012848;28;19948;-83
2023/05/08 02:02:12;;;;;;;;;;;;;;;18.00;55.19;101762.59;5015775;28;19921;-83
2023/05/08 02:04:38;;;;;;;;;;;;;;;18.01;55.09;101764.41;5025458;28;20420;-83
2023/05/08 02:07:03;;;;;;;;;;;;;;;17.98;55.02;101766.94;5010714;28;19929;-83
2023/05/08 02:09:29;;;;;;;;;;;;;;;17.98;55.12;101767.81;5010593;28;19917;-83
2023/05/08 02:11:54;;;;;;;;;;;;;;;17.97;55.04;101771.31;5010581;28;19925;-82
2023/05/08 02:14:29;;;;;;;;;;;;;;;17.97;54.66;101768.69;5011597;28;20287;-83
2023/05/08 02:16:54;;;;;;;;;;;;;;;17.95;54.93;101769.44;5011865;28;19917;-83
2023/05/08 02:19:20;;;;;;;;;;;;;;;17.93;55.14;101764.13;5010333;28;20413;-83
2023/05/08 02:21:46;;;;;;;;;;;;;;;17.94;54.97;101770.28;5021084;28;20417;-83
2023/05/08 02:24:12;;;;;;;;;;;;;;;17.95;55.05;101766.78;5026795;28;19952;-83
2023/05/08 02:26:37;;;;;;;;;;;;;;;17.93;55.20;101768.47;5010497;28;19929;-83
2023/05/08 02:29:02;;;;;;;;;;;;;;;17.92;55.07;101766.69;5010386;28;19917;-83
2023/05/08 02:31:28;;;;;;;;;;;;;;;17.89;55.04;101771.00;5021945;28;20433;-83
2023/05/08 02:33:54;;;;;;;;;;;;;;;17.89;54.96;101771.00;5026483;28;19961;-83
2023/05/08 02:36:19;;;;;;;;;;;;;;;17.89;55.16;101773.66;5020662;28;19968;-83
2023/05/08 02:38:47;;;;;;;;;;;;;;;17.87;55.06;101767.41;5010363;28;20446;-83
2023/05/08 02:41:13;;;;;;;;;;;;;;;17.87;54.96;101772.69;5011653;28;19913;-84
2023/05/08 02:43:38;;;;;;;;;;;;;;;17.84;54.85;101777.88;5010301;28;20397;-83
2023/05/08 02:46:11;;;;;;;;;;;;;;;17.87;54.93;101777.97;5010387;28;19914;-84
2023/05/08 02:48:38;;;;;;;;;;;;;;;17.84;54.83;101780.50;5006534;28;19925;-84
2023/05/08 02:51:30;;;;;;;;;;;;;;;17.82;55.09;101782.19;5023071;28;19929;-84
2023/05/08 02:54:06;;;;;;;;;;;;;;;17.83;55.18;101781.31;5009339;28;19922;-84
2023/05/08 02:56:39;;;;;;;;;;;;;;;17.83;55.01;101775.16;5010017;28;19957;-83
2023/05/08 02:59:38;;;;;;;;;;;;;;;17.84;54.91;101777.88;5010285;28;19921;-84
2023/05/08 03:02:03;;;;;;;;;;;;;;;17.80;55.03;101773.25;5010126;28;19921;-83
2023/05/08 03:04:31;;;;;;;;;;;;;;;17.79;54.89;101767.91;5011213;28;19918;-83
2023/05/08 03:06:57;;;;;;;;;;;;;;;17.80;55.08;101775.91;5010299;28;19918;-83
2023/05/08 03:09:25;;;;;;;;;;;;;;;17.77;55.16;101780.16;5010412;28;19968;-84
2023/05/08 03:11:52;;;;;;;;;;;;;;;17.75;55.17;101772.16;5024184;28;19925;-83
2023/05/08 03:14:18;;;;;;;;;;;;;;;17.75;55.21;101776.53;5021982;28;19989;-83
2023/05/08 03:16:44;;;;;;;;;;;;;;;17.75;55.11;101771.25;5009873;28;19914;-84
2023/05/08 03:19:13;;;;;;;;;;;;;;;17.73;55.04;101767.66;5015291;28;19931;-84
2023/05/08 03:21:38;;;;;;;;;;;;;;;17.73;55.18;101765.91;4993597;28;19921;-84
2023/05/08 03:24:04;;;;;;;;;;;;;;;17.72;54.99;101779.97;5011795;28;19917;-84
2023/05/08 03:26:29;;;;;;;;;;;;;;;17.69;55.16;101783.38;5020248;28;19929;-83
2023/05/08 03:28:55;;;;;;;;;;;;;;;17.72;55.05;101769.41;5009970;28;19921;-84
2023/05/08 03:31:20;;;;;;;;;;;;;;;17.70;55.17;101774.59;5011042;28;19961;-84
2023/05/08 03:33:46;;;;;;;;;;;;;;;17.69;54.99;101775.47;5011792;28;20457;-83
2023/05/08 03:36:12;;;;;;;;;;;;;;;17.69;55.05;101777.19;5023438;28;20314;-84
2023/05/08 03:38:37;;;;;;;;;;;;;;;17.67;55.00;101771.84;5013366;28;19918;-83
2023/05/08 03:41:03;;;;;;;;;;;;;;;17.64;55.23;101777.00;5013364;28;19917;-84
2023/05/08 03:43:28;;;;;;;;;;;;;;;17.65;54.96;101776.19;5016819;28;19962;-83
2023/05/08 03:45:54;;;;;;;;;;;;;;;17.63;54.96;101776.91;5023813;28;19976;-83
2023/05/08 03:48:21;;;;;;;;;;;;;;;17.63;55.14;101783.13;5014355;28;20398;-84
2023/05/08 03:50:46;;;;;;;;;;;;;;;17.58;55.20;101784.66;5025171;28;19963;-84
2023/05/08 03:53:12;;;;;;;;;;;;;;;17.61;55.07;101783.88;4998810;28;19963;-83
2023/05/08 03:55:38;;;;;;;;;;;;;;;17.61;54.98;101783.88;5013179;28;19980;-84
2023/05/08 03:58:03;;;;;;;;;;;;;;;17.57;54.90;101787.22;5014388;28;19918;-83
2023/05/08 04:00:47;;;;;;;;;;;;;;;17.53;55.34;101785.34;5019438;28;20454;-84
2023/05/08 04:03:22;;;;;;;;;;;;;;;17.57;55.24;101795.16;5014288;28;19967;-84
2023/05/08 04:05:53;;;;;;;;;;;;;;;17.57;55.10;101793.44;5014042;28;19924;-83
2023/05/08 04:08:19;;;;;;;;;;;;;;;17.57;55.14;101797.78;5014181;28;19921;-83
2023/05/08 04:10:47;;;;;;;;;;;;;;;17.54;55.42;101798.56;5023215;28;19921;-84
2023/05/08 04:13:13;;;;;;;;;;;;;;;17.56;55.29;101796.91;5015545;28;20082;-84
2023/05/08 04:15:43;;;;;;;;;;;;;;;17.56;55.44;101794.25;5016465;28;20473;-83
2023/05/08 04:18:08;;;;;;;;;;;;;;;17.56;55.25;101804.81;5032128;28;19925;-83
2023/05/08 04:20:34;;;;;;;;;;;;;;;17.55;55.22;101804.78;5015112;28;20464;-84
2023/05/08 04:23:00;;;;;;;;;;;;;;;17.54;55.26;101808.25;5018859;28;19948;-83
2023/05/08 04:25:42;;;;;;;;;;;;;;;17.51;55.11;101801.09;5026521;28;20004;-84
2023/05/08 04:28:08;;;;;;;;;;;;;;;17.52;55.13;101800.25;5030483;28;20035;-84
2023/05/08 04:30:59;;;;;;;;;;;;;;;17.50;55.08;101787.00;5032647;28;20475;-85
2023/05/08 04:33:25;;;;;;;;;;;;;;;17.49;55.23;101781.66;5017809;28;19936;-84
2023/05/08 04:35:50;;;;;;;;;;;;;;;17.39;55.13;101763.59;5024179;28;19921;-84
2023/05/08 04:38:16;;;;;;;;;;;;;;;17.46;55.14;101785.06;5029570;28;19928;-85
2023/05/08 04:40:41;;;;;;;;;;;;;;;17.47;55.36;101781.56;5031904;28;19971;-84
2023/05/08 04:43:07;;;;;;;;;;;;;;;17.46;55.31;101787.72;5001342;28;20314;-85
2023/05/08 04:45:32;;;;;;;;;;;;;;;17.47;55.28;101789.50;5024183;28;19928;-84
2023/05/08 04:47:58;;;;;;;;;;;;;;;17.45;55.40;101796.44;5024799;28;19979;-84
2023/05/08 04:50:23;;;;;;;;;;;;;;;17.43;55.44;101794.59;5009716;28;19927;-85
2023/05/08 04:53:02;;;;;;;;;;;;;;;17.43;55.47;101791.94;5029623;28;19935;-85
2023/05/08 04:55:27;;;;;;;;;;;;;;;17.42;55.64;101791.06;5030057;28;20402;-85
2023/05/08 04:58:09;;;;;;;;;;;;;;;17.44;55.48;101788.47;5027169;28;19971;-86
2023/05/08 05:00:35;;;;;;;;;;;;;;;17.43;55.58;101792.84;5018041;28;19987;-84
2023/05/08 05:03:48;;;;;;;;;;;;;;;17.42;55.57;101793.69;5025750;28;19921;-85
2023/05/08 05:06:19;;;;;;;;;;;;;;;17.42;55.53;101788.41;5024581;28;19927;-85
2023/05/08 05:08:44;;;;;;;;;;;;;;;17.42;55.47;101790.13;5023783;28;20056;-85
2023/05/08 05:11:10;;;;;;;;;;;;;;;17.37;55.64;101787.31;5022419;28;20011;-84
2023/05/08 05:13:35;;;;;;;;;;;;;;;17.42;55.61;101782.22;5021394;28;20416;-84
2023/05/08 05:16:01;;;;;;;;;;;;;;;17.41;55.78;101793.63;5019577;28;19958;-83
2023/05/08 05:18:26;;;;;;;;;;;;;;;17.40;55.80;101787.44;5021360;28;20378;-84
2023/05/08 05:20:52;;;;;;;;;;;;;;;17.42;55.87;101785.78;5023104;28;20476;-83
2023/05/08 05:23:17;;;;;;;;;;;;;;;17.40;55.92;101782.16;5026392;28;19979;-83
2023/05/08 05:25:42;;;;;;;;;;;;;;;17.39;56.18;101775.06;5024450;28;19921;-84
2023/05/08 05:28:08;;;;;;;;;;;;;;;17.40;55.92;101779.53;5026989;28;20372;-85
2023/05/08 05:30:34;;;;;;;;;;;;;;;17.38;56.00;101762.72;5003164;28;19978;-83
2023/05/08 05:32:59;;;;;;;;;;;;;;;17.38;55.88;101768.00;5028024;28;20020;-84
2023/05/08 05:35:25;;;;;;;;;;;;;;;17.40;55.89;101778.59;5022726;28;19921;-83
2023/05/08 05:37:51;;;;;;;;;;;;;;;17.40;55.91;101778.59;5011916;28;20019;-84
2023/05/08 05:40:16;;;;;;;;;;;;;;;17.40;56.02;101789.16;5029349;28;20402;-84
2023/05/08 05:42:47;;;;;;;;;;;;;;;17.37;56.13;101782.03;5031345;28;19939;-85
2023/05/08 05:45:14;;;;;;;;;;;;;;;17.34;56.09;101781.00;5012820;28;19921;-83
2023/05/08 05:47:45;;;;;;;;;;;;;;;17.38;56.06;101794.41;5028084;28;19925;-83
2023/05/08 05:50:11;;;;;;;;;;;;;;;17.38;56.11;101793.50;5020266;28;19921;-82
2023/05/08 05:52:37;;;;;;;;;;;;;;;17.40;55.96;101794.44;5023982;28;19921;-82
2023/05/08 05:55:02;;;;;;;;;;;;;;;17.40;55.89;101792.72;5026945;28;19928;-81
2023/05/08 05:57:28;;;;;;;;;;;;;;;17.32;56.14;101794.13;5013953;28;19922;-82
2023/05/08 05:59:53;;;;;;;;;;;;;;;17.35;56.33;101791.63;5008761;28;19921;-81
2023/05/08 06:02:49;;;;;;;;;;;;;;;17.29;56.22;101797.56;5026621;28;19948;-93
2023/05/08 06:05:35;;;;;;;;;;;;;;;17.18;56.93;101800.56;4985055;28;19925;-85
2023/05/08 06:08:06;;;;;;;;;;;;;;;17.16;56.87;101797.84;5019232;28;19936;-87
2023/05/08 06:10:32;;;;;;;;;;;;;;;17.22;56.81;101795.47;5023442;28;20390;-83
2023/05/08 06:13:15;;;;;;;;;;;;;;;17.32;56.50;101791.50;5031675;28;19925;-85
2023/05/08 06:16:12;;;;;;;;;;;;;;;17.51;55.65;101798.47;5023728;28;19925;-86
2023/05/08 06:18:57;;;;;;;;;;;;;;;17.54;54.33;101798.56;4946923;28;20036;-86
2023/05/08 06:21:46;;;;;;;;;;;;;;;17.61;53.55;101794.44;4942057;28;20007;-86
2023/05/08 06:24:12;;;;;;;;;;;;;;;17.70;52.79;101794.84;4938354;28;19931;-86
2023/05/08 06:26:37;;;;;;;;;;;;;;;17.66;52.72;101791.16;4922958;29;20467;-87
2023/05/08 06:29:03;;;;;;;;;;;;;;;17.75;52.43;101790.66;4994043;28;19924;-87
2023/05/08 06:31:28;;;;;;;;;;;;;;;17.77;52.24;101790.72;5019069;28;20322;-86
2023/05/08 06:33:54;;;;;;;;;;;;;;;17.74;52.25;101793.22;5012939;28;20000;-86
2023/05/08 06:36:19;;;;;;;;;;;;;;;17.82;51.76;101779.53;5022796;28;20405;-86
2023/05/08 06:38:45;;;;;;;;;;;;;;;17.88;51.72;101794.72;5023131;28;19932;-87
2023/05/08 06:41:10;;;;;;;;;;;;;;;17.82;51.56;101798.03;5007802;28;19947;-88
2023/05/08 06:43:36;;;;;;;;;;;;;;;17.84;51.72;101792.78;5007949;28;19925;-87
2023/05/08 06:46:01;;;;;;;;;;;;;;;17.84;51.72;101792.78;5007954;28;19925;-85
2023/05/08 06:48:29;;;;;;;;;;;;;;;17.98;51.28;101793.38;5005018;28;20406;-85
2023/05/08 06:50:55;;;;;;;;;;;;;;;17.81;52.34;101785.63;5021544;28;19925;-87
2023/05/08 06:53:20;;;;;;;;;;;;;;;17.67;53.96;101798.28;5018873;28;20017;-86
2023/05/08 06:55:46;;;;;;;;;;;;;;;17.63;55.03;101795.41;5007329;28;20039;-87
2023/05/08 06:58:11;;;;;;;;;;;;;;;17.55;55.82;101788.94;5023883;28;19925;-87
2023/05/08 07:00:37;;;;;;;;;;;;;;;17.64;55.76;101802.53;5024360;28;19921;-87
2023/05/08 07:03:02;;;;;;;;;;;;;;;17.77;54.25;101796.91;5014842;28;20021;-86
2023/05/08 07:05:28;;;;;;;;;;;;;;;17.91;53.21;101789.56;5019328;28;20606;-86
2023/05/08 07:07:53;;;;;;;;;;;;;;;17.86;52.76;101785.81;5027383;28;19921;-86
2023/05/08 07:10:21;;;;;;;;;;;;;;;17.99;52.13;101781.94;5025810;28;19925;-87
2023/05/08 07:12:47;;;;;;;;;;;;;;;17.97;51.99;101781.91;5031036;28;19927;-86
2023/05/08 07:15:13;;;;;;;;;;;;;;;17.98;51.78;101785.44;5011349;28;19927;-84
2023/05/08 07:17:41;;;;;;;;;;;;;;;17.81;51.90;101777.69;5026849;28;19933;-84
2023/05/08 07:20:16;;;;;;;;;;;;;;;17.86;51.84;101781.47;5026730;28;19987;-85
2023/05/08 07:22:42;;;;;;;;;;;;;;;17.90;51.80;101779.81;5004238;28;20007;-85
2023/05/08 07:25:11;;;;;;;;;;;;;;;17.87;51.55;101785.00;5021812;28;20020;-84
2023/05/08 07:27:39;;;;;;;;;;;;;;;17.90;51.65;101787.75;5023202;28;19921;-84
2023/05/08 07:30:04;;;;;;;;;;;;;;;17.86;51.51;101786.75;5026531;28;19921;-86
2023/05/08 07:32:30;;;;;;;;;;;;;;;17.97;51.11;101786.25;5027312;28;19947;-85
2023/05/08 07:34:55;;;;;;;;;;;;;;;18.06;50.87;101795.47;5013726;28;19925;-86
2023/05/08 07:37:21;;;;;;;;;;;;;;;18.01;51.06;101794.41;5028929;28;19921;-86
2023/05/08 07:39:47;;;;;;;;;;;;;;;17.95;51.07;101791.50;5024295;28;19921;-84
2023/05/08 07:42:13;;;;;;;;;;;;;;;17.88;52.81;101784.16;5019471;28;19921;-85
2023/05/08 07:44:38;;;;;;;;;;;;;;;17.74;54.25;101790.56;5008385;28;19921;-83
2023/05/08 07:47:04;;;;;;;;;;;;;;;17.76;54.85;101797.75;5032649;28;19982;-85
2023/05/08 07:49:29;;;;;;;;;;;;;;;17.75;55.52;101793.28;5029179;28;19974;-84
2023/05/08 07:51:55;;;;;;;;;;;;;;;17.78;54.88;101793.44;5030246;28;19928;-86
2023/05/08 07:54:20;;;;;;;;;;;;;;;17.83;53.98;101804.22;5026641;28;19922;-86
2023/05/08 07:56:48;;;;;;;;;;;;;;;17.86;53.08;101793.75;5024535;28;19921;-94
2023/05/08 07:59:14;;;;;;;;;;;;;;;17.84;52.68;101788.44;5025559;28;20023;-86
2023/05/08 08:01:45;;;;;;;;;;;;;;;18.02;52.06;101782.06;5011748;28;19925;-87
2023/05/08 08:04:11;;;;;;;;;;;;;;;17.97;51.98;101786.25;5027599;28;19964;-85
2023/05/08 08:06:36;;;;;;;;;;;;;;;17.99;51.84;101789.88;5027896;28;19971;-87
2023/05/08 08:09:02;;;;;;;;;;;;;;;18.02;51.65;101785.63;5004626;28;19928;-84
2023/05/08 08:11:27;;;;;;;;;;;;;;;18.05;51.39;101788.38;5025039;28;19968;-87
2023/05/08 08:13:53;;;;;;;;;;;;;;;18.02;51.49;101790.00;5030081;28;20386;-87
2023/05/08 08:16:18;;;;;;;;;;;;;;;18.05;51.28;101783.06;5036003;28;19971;-87
2023/05/08 08:18:43;;;;;;;;;;;;;;;18.09;51.03;101787.66;5028689;28;19921;-85
2023/05/08 08:21:09;;;;;;;;;;;;;;;18.00;51.34;101792.56;5028408;28;20410;-85
2023/05/08 08:23:34;;;;;;;;;;;;;;;17.95;51.44;101794.16;5026983;28;19925;-87
2023/05/08 08:26:00;;;;;;;;;;;;;;;18.09;50.95;101794.69;5024965;28;20884;-86
2023/05/08 08:28:25;;;;;;;;;;;;;;;18.02;51.01;101798.81;5023299;28;19935;-87
2023/05/08 08:30:51;;;;;;;;;;;;;;;17.96;52.00;101798.56;5028831;28;19929;-86
2023/05/08 08:33:16;;;;;;;;;;;;;;;17.89;53.62;101789.50;5025504;28;20448;-84
2023/05/08 08:35:41;;;;;;;;;;;;;;;18.04;53.53;101788.31;5025824;28;20012;-82
2023/05/08 08:38:07;;;;;;;;;;;;;;;18.13;52.22;101791.31;5028575;28;20432;-82
2023/05/08 08:40:37;;;;;;;;;;;;;;;18.04;51.94;101786.56;5029832;28;20382;-83
2023/05/08 08:43:02;;;;;;;;;;;;;;;18.05;51.88;101782.19;5030990;28;19921;-83
2023/05/08 08:45:28;;;;;;;;;;;;;;;18.10;51.47;101778.88;5024704;28;19918;-82
2023/05/08 08:47:53;;;;;;;;;;;;;;;18.03;51.56;101787.44;5028051;28;20421;-82
2023/05/08 08:50:19;;;;;;;;;;;;;;;18.13;51.17;101785.13;5005274;28;20354;-82
2023/05/08 08:52:53;;;;;;;;;;;;;;;18.08;51.44;101791.16;5010449;28;20409;-82
2023/05/08 08:55:19;;;;;;;;;;;;;;;18.06;51.05;101784.91;5027713;28;20025;-82
2023/05/08 08:57:50;;;;;;;;;;;;;;;18.22;50.77;101775.81;5002912;28;19988;-82
2023/05/08 09:00:16;;;;;;;;;;;;;;;18.22;50.84;101773.16;4988477;28;19968;-83
2023/05/08 09:02:41;;;;;;;;;;;;;;;18.16;50.76;101772.97;5011593;28;20018;-83
2023/05/08 09:05:07;;;;;;;;;;;;;;;18.14;50.87;101771.06;5027297;28;19967;-84
2023/05/08 09:07:36;;;;;;;;;;;;;;;18.21;50.82;101774.03;5006520;28;20342;-84
2023/05/08 09:10:03;;;;;;;;;;;;;;;18.19;51.17;101767.78;5025478;28;20027;-84
2023/05/08 09:12:28;;;;;;;;;;;;;;;18.28;50.88;101769.88;5026534;28;19928;-84
2023/05/08 09:14:54;;;;;;;;;;;;;;;18.22;50.65;101767.88;4994376;28;19922;-84
2023/05/08 09:17:20;;;;;;;;;;;;;;;18.13;52.76;101766.63;5025813;28;19914;-84
2023/05/08 09:19:47;;;;;;;;;;;;;;;18.12;52.92;101773.66;5018576;28;19976;-84
2023/05/08 09:22:12;;;;;;;;;;;;;;;18.20;51.90;101768.66;5020061;28;19917;-84
2023/05/08 09:25:02;;;;;;;;;;;;;;;18.28;51.59;101770.75;5012851;28;19919;-83
2023/05/08 09:27:28;;;;;;;;;;;;;;;18.20;51.48;101756.38;5019955;28;20119;-84
2023/05/08 09:30:01;;;;;;;;;;;;;;;18.20;51.49;101751.09;5006963;28;19928;-84
2023/05/08 09:32:27;;;;;;;;;;;;;;;18.21;51.25;101755.50;5010582;28;20310;-83
2023/05/08 09:34:52;;;;;;;;;;;;;;;18.17;51.21;101750.06;5018391;28;19922;-83
2023/05/08 09:37:18;;;;;;;;;;;;;;;18.27;51.02;101745.19;5026997;28;19921;-84
2023/05/08 09:39:45;;;;;;;;;;;;;;;18.31;51.90;101749.75;5021603;28;19925;-83
2023/05/08 09:42:11;;;;;;;;;;;;;;;18.27;51.46;101739.88;5011607;28;20375;-84
2023/05/08 09:44:44;;;;;;;;;;;;;;;18.33;51.07;101751.53;5022633;28;19960;-81
2023/05/08 09:47:11;;;;;;;;;;;;;;;18.38;50.83;101745.56;5009767;28;19983;-82
2023/05/08 09:49:38;;;;;;;;;;;;;;;18.40;50.84;101745.66;5013361;28;19927;-82
2023/05/08 09:52:04;;;;;;;;;;;;;;;18.40;50.75;101746.53;5011807;28;19929;-82
2023/05/08 09:54:29;;;;;;;;;;;;;;;18.33;50.70;101743.59;5021573;28;19925;-84
2023/05/08 09:56:55;;;;;;;;;;;;;;;18.29;50.84;101747.88;5021677;28;19959;-84
2023/05/08 09:59:25;;;;;;;;;;;;;;;18.41;50.72;101735.09;5026685;28;19925;-84
2023/05/08 10:01:51;;;;;;;;;;;;;;;18.39;52.43;101736.78;5022084;28;19952;-84
2023/05/08 10:04:16;;;;;;;;;;;;;;;18.40;52.21;101743.00;5013166;28;20312;-85
2023/05/08 10:06:42;;;;;;;;;;;;;;;18.42;51.52;101733.38;5012124;28;20022;-85
2023/05/08 10:09:08;;;;;;;;;;;;;;;18.35;51.33;101747.19;5010496;28;19920;-85
2023/05/08 10:11:33;;;;;;;;;;;;;;;18.44;50.86;101742.28;5012006;28;20015;-86
2023/05/08 10:13:59;;;;;;;;;;;;;;;18.41;50.83;101735.09;5014325;28;20047;-83
2023/05/08 10:16:25;;;;;;;;;;;;;;;18.46;51.43;101736.19;5023709;28;19921;-85
2023/05/08 10:18:51;;;;;;;;;;;;;;;18.42;51.56;101738.66;5024012;28;19990;-85
2023/05/08 10:21:16;;;;;;;;;;;;;;;18.48;51.16;101741.53;5017659;28;20023;-85
2023/05/08 10:23:42;;;;;;;;;;;;;;;18.48;50.90;101749.47;5027652;28;19921;-84
2023/05/08 10:26:14;;;;;;;;;;;;;;;18.39;51.87;101744.72;5011584;28;19921;-91
2023/05/08 10:28:47;;;;;;;;;;;;;;;18.27;56.47;101744.28;5006645;28;19928;-92
2023/05/08 10:31:16;;;;;;;;;;;;;;;18.29;56.38;101747.88;5011269;28;19921;-93
2023/05/08 10:33:41;;;;;;;;;;;;;;;18.43;55.39;101751.03;5030679;28;20371;-84
2023/05/08 10:36:08;;;;;;;;;;;;;;;18.51;53.92;101753.13;5019407;28;19924;-86
2023/05/08 10:38:34;;;;;;;;;;;;;;;18.58;53.07;101751.59;5010956;28;19920;-86
2023/05/08 10:41:00;;;;;;;;;;;;;;;18.55;52.69;101747.97;5034846;28;19929;-85
2023/05/08 10:43:25;;;;;;;;;;;;;;;18.70;52.03;101745.88;5020058;28;20453;-85
2023/05/08 10:45:51;;;;;;;;;;;;;;;18.64;51.68;101743.00;5017028;28;19917;-86
2023/05/08 10:48:17;;;;;;;;;;;;;;;18.62;51.76;101742.03;5007919;28;19975;-87
2023/05/08 10:50:51;;;;;;;;;;;;;;;18.60;51.36;101741.97;5027990;28;20394;-86
2023/05/08 10:53:20;;;;;;;;;;;;;;;18.61;51.36;101750.84;5032873;28;20450;-85
2023/05/08 10:55:46;;;;;;;;;;;;;;;18.65;51.14;101751.00;5021381;28;20311;-85
2023/05/08 10:58:15;;;;;;;;;;;;;;;18.70;50.83;101749.41;5021777;28;19927;-86
2023/05/08 11:00:56;;;;;;;;;;;;;;;18.68;50.97;101747.56;5026823;28;19943;-85
2023/05/08 11:03:25;;;;;;;;;;;;;;;18.70;50.67;101752.06;5019181;28;19928;-86
2023/05/08 11:05:51;;;;;;;;;;;;;;;18.72;50.49;101749.47;5027811;28;19925;-85
2023/05/08 11:08:17;;;;;;;;;;;;;;;18.75;50.55;101744.28;5030741;28;19917;-87
2023/05/08 11:11:09;;;;;;;;;;;;;;;18.76;50.29;101748.75;5013225;28;19971;-86
2023/05/08 11:13:36;;;;;;;;;;;;;;;18.72;50.51;101744.19;5022120;28;19995;-87
2023/05/08 11:16:05;;;;;;;;;;;;;;;18.83;50.20;101745.50;5028976;28;19920;-88
2023/05/08 11:18:30;;;;;;;;;;;;;;;18.84;50.21;101742.03;5006966;28;19925;-86
2023/05/08 11:20:57;;;;;;;;;;;;;;;18.75;50.22;101756.63;5010701;28;19925;-86
2023/05/08 11:23:22;;;;;;;;;;;;;;;18.80;50.15;101757.75;5022733;28;19925;-85
2023/05/08 11:25:47;;;;;;;;;;;;;;;18.81;50.03;101748.94;5023369;28;19922;-87
2023/05/08 11:28:15;;;;;;;;;;;;;;;18.82;50.21;101761.34;5027196;28;20382;-86
2023/05/08 11:30:42;;;;;;;;;;;;;;;18.90;49.89;101752.81;5027849;28;19974;-86
2023/05/08 11:33:08;;;;;;;;;;;;;;;18.85;49.99;101745.56;5026912;28;19921;-84
2023/05/08 11:35:50;;;;;;;;;;;;;;;18.85;50.04;101743.81;5023280;28;20019;-86
2023/05/08 11:38:16;;;;;;;;;;;;;;;18.90;49.84;101744.88;5024644;28;20394;-85
2023/05/08 11:40:46;;;;;;;;;;;;;;;19.00;49.41;101743.44;5011876;28;19962;-86
2023/05/08 11:43:38;;;;;;;;;;;;;;;18.90;49.93;101726.34;5021952;28;19925;-84
2023/05/08 11:46:03;;;;;;;;;;;;;;;18.88;49.96;101733.34;5002894;28;19970;-84
2023/05/08 11:48:29;;;;;;;;;;;;;;;18.92;49.89;101727.31;5024895;28;19925;-85
2023/05/08 11:50:55;;;;;;;;;;;;;;;18.91;49.86;101733.44;5007098;28;20317;-84
2023/05/08 11:53:20;;;;;;;;;;;;;;;19.00;49.50;101731.97;5010752;28;19925;-86
2023/05/08 11:55:49;;;;;;;;;;;;;;;18.97;49.50;101721.28;5026653;28;20008;-88
2023/05/08 11:58:14;;;;;;;;;;;;;;;18.97;49.57;101722.19;5029483;28;19979;-84
2023/05/08 12:00:43;;;;;;;;;;;;;;;18.99;50.90;101716.94;5011802;28;19921;-85
2023/05/08 12:03:16;;;;;;;;;;;;;;;18.91;52.60;101714.91;5028026;28;19925;-86
2023/05/08 12:05:41;;;;;;;;;;;;;;;18.90;52.30;101712.19;5023924;28;19925;-86
2023/05/08 12:08:07;;;;;;;;;;;;;;;18.90;51.57;101702.53;5015457;28;20402;-86
2023/05/08 12:10:53;;;;;;;;;;;;;;;19.08;50.73;101698.72;5018756;28;19987;-86
2023/05/08 12:13:19;;;;;;;;;;;;;;;19.03;50.57;101695.91;5025441;28;19978;-86
2023/05/08 12:15:45;;;;;;;;;;;;;;;19.05;50.46;101696.88;5022410;28;19929;-86
2023/05/08 12:18:10;;;;;;;;;;;;;;;19.07;50.20;101696.91;5026987;28;19928;-84
2023/05/08 12:20:36;;;;;;;;;;;;;;;19.02;50.43;101693.22;5027209;28;19925;-85
2023/05/08 12:23:01;;;;;;;;;;;;;;;19.06;50.25;101701.31;5021097;28;19922;-86
2023/05/08 12:25:27;;;;;;;;;;;;;;;19.04;50.12;101692.41;5024487;28;20410;-85
2023/05/08 12:27:52;;;;;;;;;;;;;;;19.08;49.90;101689.03;5024642;28;19928;-85
2023/05/08 12:30:18;;;;;;;;;;;;;;;19.12;49.69;101687.38;5029530;28;19921;-86
2023/05/08 12:32:43;;;;;;;;;;;;;;;19.18;49.53;101679.66;5030429;28;19975;-86
2023/05/08 12:35:09;;;;;;;;;;;;;;;19.19;49.52;101678.78;5028689;28;19927;-85
2023/05/08 12:37:35;;;;;;;;;;;;;;;19.06;49.97;101677.47;5019135;28;19925;-87
2023/05/08 12:40:01;;;;;;;;;;;;;;;19.16;49.51;101678.69;5016552;28;19932;-87